sensor_id;sensor_type;location;lat;lon;timestamp;pressure;altitude;pressure_sealevel;temperature;humidity
55032;BME280;40928;51.076;7.950;2023-04-08T00:00:58;97483.53;;;4.55;100.00
55032;BME280;40928;51.076;7.950;2023-04-08T00:03:24;97476.41;;;4.56;100.00
55032;BME280;40928;51.076;7.950;2023-04-08T00:05:50;97480.69;;;4.57;100.00
55032;BME280;40928;51.076;7.950;2023-04-08T00:08:16;97484.34;;;4.56;100.00
55032;BME280;40928;51.076;7.950;2023-04-08T00:10:41;97489.00;;;4.54;100.00
55032;BME280;40928;51.076;7.950;2023-04-08T00:13:06;97483.53;;;4.55;100.00
55032;BME280;40928;51.076;7.950;2023-04-08T00:15:32;97483.06;;;4.52;100.00
55032;BME280;40928;51.076;7.950;2023-04-08T00:17:57;97488.34;;;4.52;100.00
55032;BME280;40928;51.076;7.950;2023-04-08T00:20:23;97494.28;;;4.54;100.00
55032;BME280;40928;51.076;7.950;2023-04-08T00:22:49;97492.47;;;4.54;100.00
55032;BME280;40928;51.076;7.950;2023-04-08T00:25:14;97490.63;;;4.55;100.00
55032;BME280;40928;51.076;7.950;2023-04-08T00:27:40;97489.00;;;4.54;100.00
55032;BME280;40928;51.076;7.950;2023-04-08T00:30:06;97499.97;;;4.51;100.00
55032;BME280;40928;51.076;7.950;2023-04-08T00:32:31;97500.78;;;4.51;100.00
55032;BME280;40928;51.076;7.950;2023-04-08T00:34:57;97497.31;;;4.51;100.00
55032;BME280;40928;51.076;7.950;2023-04-08T00:37:23;97498.13;;;4.51;100.00
55032;BME280;40928;51.076;7.950;2023-04-08T00:39:49;97496.50;;;4.50;100.00
55032;BME280;40928;51.076;7.950;2023-04-08T00:42:16;97498.94;;;4.52;100.00
55032;BME280;40928;51.076;7.950;2023-04-08T00:44:41;97501.41;;;4.53;100.00
55032;BME280;40928;51.076;7.950;2023-04-08T00:47:11;97501.03;;;4.56;100.00
55032;BME280;40928;51.076;7.950;2023-04-08T00:49:36;97498.19;;;4.58;100.00
55032;BME280;40928;51.076;7.950;2023-04-08T00:52:02;97504.94;;;4.61;100.00
55032;BME280;40928;51.076;7.950;2023-04-08T00:54:29;97509.78;;;4.57;100.00
55032;BME280;40928;51.076;7.950;2023-04-08T00:56:55;97506.69;;;4.53;100.00
55032;BME280;40928;51.076;7.950;2023-04-08T00:59:21;97511.34;;;4.51;100.00
55032;BME280;40928;51.076;7.950;2023-04-08T01:01:58;97505.06;;;4.52;100.00
55032;BME280;40928;51.076;7.950;2023-04-08T01:05:05;97515.84;;;4.51;100.00
55032;BME280;40928;51.076;7.950;2023-04-08T01:07:34;97504.78;;;4.47;100.00
55032;BME280;40928;51.076;7.950;2023-04-08T01:10:04;97510.91;;;4.48;100.00
55032;BME280;40928;51.076;7.950;2023-04-08T01:12:36;97511.56;;;4.50;100.00
55032;BME280;40928;51.076;7.950;2023-04-08T01:15:06;97506.63;;;4.47;100.00
55032;BME280;40928;51.076;7.950;2023-04-08T01:17:33;97507.63;;;4.46;100.00
55032;BME280;40928;51.076;7.950;2023-04-08T01:20:02;97509.44;;;4.45;100.00
55032;BME280;40928;51.076;7.950;2023-04-08T01:25:18;97514.31;;;4.41;100.00
55032;BME280;40928;51.076;7.950;2023-04-08T01:27:45;97513.66;;;4.39;100.00
55032;BME280;40928;51.076;7.950;2023-04-08T01:30:13;97511.38;;;4.36;100.00
55032;BME280;40928;51.076;7.950;2023-04-08T01:32:39;97521.34;;;4.34;100.00
55032;BME280;40928;51.076;7.950;2023-04-08T01:35:08;97516.06;;;4.34;100.00
55032;BME280;40928;51.076;7.950;2023-04-08T01:37:34;97512.59;;;4.34;100.00
55032;BME280;40928;51.076;7.950;2023-04-08T01:40:01;97520.53;;;4.34;100.00
55032;BME280;40928;51.076;7.950;2023-04-08T01:42:27;97516.88;;;4.35;100.00
55032;BME280;40928;51.076;7.950;2023-04-08T01:44:56;97510.16;;;4.32;100.00
55032;BME280;40928;51.076;7.950;2023-04-08T01:47:23;97517.31;;;4.38;100.00
55032;BME280;40928;51.076;7.950;2023-04-08T01:49:50;97518.59;;;4.42;100.00
55032;BME280;40928;51.076;7.950;2023-04-08T01:52:19;97522.31;;;4.48;100.00
55032;BME280;40928;51.076;7.950;2023-04-08T01:54:45;97518.66;;;4.49;100.00
55032;BME280;40928;51.076;7.950;2023-04-08T01:57:13;97515.84;;;4.51;100.00
55032;BME280;40928;51.076;7.950;2023-04-08T01:59:41;97525.38;;;4.52;100.00
55032;BME280;40928;51.076;7.950;2023-04-08T02:02:08;97518.47;;;4.51;100.00
55032;BME280;40928;51.076;7.950;2023-04-08T02:04:34;97524.78;;;4.50;100.00
55032;BME280;40928;51.076;7.950;2023-04-08T02:07:01;97520.28;;;4.50;100.00
55032;BME280;40928;51.076;7.950;2023-04-08T02:09:27;97519.94;;;4.53;100.00
55032;BME280;40928;51.076;7.950;2023-04-08T02:11:53;97518.09;;;4.54;100.00
55032;BME280;40928;51.076;7.950;2023-04-08T02:14:18;97523.00;;;4.57;100.00
55032;BME280;40928;51.076;7.950;2023-04-08T02:16:57;97518.34;;;4.59;100.00
55032;BME280;40928;51.076;7.950;2023-04-08T02:19:42;97520.44;;;4.64;100.00
55032;BME280;40928;51.076;7.950;2023-04-08T02:22:17;97519.06;;;4.68;100.00
55032;BME280;40928;51.076;7.950;2023-04-08T02:24:44;97525.41;;;4.73;100.00
55032;BME280;40928;51.076;7.950;2023-04-08T02:27:11;97521.75;;;4.75;100.00
55032;BME280;40928;51.076;7.950;2023-04-08T02:29:39;97532.78;;;4.78;100.00
55032;BME280;40928;51.076;7.950;2023-04-08T02:32:05;97526.47;;;4.79;100.00
55032;BME280;40928;51.076;7.950;2023-04-08T02:34:31;97517.66;;;4.72;100.00
55032;BME280;40928;51.076;7.950;2023-04-08T02:36:57;97530.97;;;4.79;100.00
55032;BME280;40928;51.076;7.950;2023-04-08T02:39:30;97539.53;;;4.81;100.00
55032;BME280;40928;51.076;7.950;2023-04-08T02:41:56;97535.88;;;4.82;100.00
55032;BME280;40928;51.076;7.950;2023-04-08T02:44:21;97539.53;;;4.81;100.00
55032;BME280;40928;51.076;7.950;2023-04-08T02:46:47;97535.03;;;4.81;100.00
55032;BME280;40928;51.076;7.950;2023-04-08T02:49:12;97535.47;;;4.85;100.00
55032;BME280;40928;51.076;7.950;2023-04-08T02:51:37;97533.25;;;4.82;100.00
55032;BME280;40928;51.076;7.950;2023-04-08T02:54:03;97535.69;;;4.83;100.00
55032;BME280;40928;51.076;7.950;2023-04-08T02:56:28;97534.03;;;4.82;100.00
55032;BME280;40928;51.076;7.950;2023-04-08T02:58:54;97527.09;;;4.81;100.00
55032;BME280;40928;51.076;7.950;2023-04-08T03:01:20;97535.69;;;4.83;100.00
55032;BME280;40928;51.076;7.950;2023-04-08T03:03:46;97538.13;;;4.85;100.00
55032;BME280;40928;51.076;7.950;2023-04-08T03:06:11;97539.78;;;4.86;100.00
55032;BME280;40928;51.076;7.950;2023-04-08T03:08:37;97534.47;;;4.86;100.00
55032;BME280;40928;51.076;7.950;2023-04-08T03:11:02;97534.47;;;4.86;100.00
55032;BME280;40928;51.076;7.950;2023-04-08T03:13:28;97535.31;;;4.86;100.00
55032;BME280;40928;51.076;7.950;2023-04-08T03:15:54;97532.66;;;4.86;100.00
55032;BME280;40928;51.076;7.950;2023-04-08T03:18:19;97529.38;;;4.84;100.00
55032;BME280;40928;51.076;7.950;2023-04-08T03:20:45;97528.38;;;4.85;100.00
55032;BME280;40928;51.076;7.950;2023-04-08T03:23:11;97535.31;;;4.86;100.00
55032;BME280;40928;51.076;7.950;2023-04-08T03:25:36;97537.97;;;4.86;100.00
55032;BME280;40928;51.076;7.950;2023-04-08T03:28:02;97528.53;;;4.84;100.00
55032;BME280;40928;51.076;7.950;2023-04-08T03:30:27;97532.19;;;4.83;100.00
55032;BME280;40928;51.076;7.950;2023-04-08T03:32:53;97531.59;;;4.81;100.00
55032;BME280;40928;51.076;7.950;2023-04-08T03:35:18;97533.59;;;4.79;100.00
55032;BME280;40928;51.076;7.950;2023-04-08T03:37:44;97531.34;;;4.76;100.00
55032;BME280;40928;51.076;7.950;2023-04-08T03:40:11;97539.00;;;4.70;100.00
55032;BME280;40928;51.076;7.950;2023-04-08T03:42:37;97536.56;;;4.69;100.00
55032;BME280;40928;51.076;7.950;2023-04-08T03:45:02;97545.13;;;4.71;100.00
55032;BME280;40928;51.076;7.950;2023-04-08T03:47:29;97541.22;;;4.67;100.00
55032;BME280;40928;51.076;7.950;2023-04-08T03:49:55;97541.03;;;4.68;100.00
55032;BME280;40928;51.076;7.950;2023-04-08T03:52:20;97546.13;;;4.70;100.00
55032;BME280;40928;51.076;7.950;2023-04-08T03:54:46;97544.94;;;4.72;100.00
55032;BME280;40928;51.076;7.950;2023-04-08T03:57:11;97548.22;;;4.75;100.00
55032;BME280;40928;51.076;7.950;2023-04-08T03:59:37;97547.00;;;4.77;100.00
55032;BME280;40928;51.076;7.950;2023-04-08T04:02:04;97538.25;;;4.77;100.00
55032;BME280;40928;51.076;7.950;2023-04-08T04:04:29;97540.28;;;4.75;100.00
55032;BME280;40928;51.076;7.950;2023-04-08T04:06:55;97543.28;;;4.71;100.00
55032;BME280;40928;51.076;7.950;2023-04-08T04:09:20;97542.50;;;4.71;100.00
55032;BME280;40928;51.076;7.950;2023-04-08T04:11:46;97542.84;;;4.68;100.00
55032;BME280;40928;51.076;7.950;2023-04-08T04:14:11;97537.78;;;4.66;100.00
55032;BME280;40928;51.076;7.950;2023-04-08T04:16:36;97539.78;;;4.64;100.00
55032;BME280;40928;51.076;7.950;2023-04-08T04:19:02;97540.16;;;4.61;100.00
55032;BME280;40928;51.076;7.950;2023-04-08T04:21:27;97546.44;;;4.60;100.00
55032;BME280;40928;51.076;7.950;2023-04-08T04:35:22;97549.66;;;4.55;100.00
55032;BME280;40928;51.076;7.950;2023-04-08T04:37:48;97551.28;;;4.56;100.00
55032;BME280;40928;51.076;7.950;2023-04-08T04:40:14;97549.66;;;4.55;100.00
55032;BME280;40928;51.076;7.950;2023-04-08T04:42:40;97549.19;;;4.52;100.00
55032;BME280;40928;51.076;7.950;2023-04-08T04:45:06;97550.22;;;4.51;100.00
55032;BME280;40928;51.076;7.950;2023-04-08T04:47:31;97547.75;;;4.49;100.00
55032;BME280;40928;51.076;7.950;2023-04-08T04:49:57;97550.97;;;4.45;100.00
55032;BME280;40928;51.076;7.950;2023-04-08T04:52:22;97555.59;;;4.42;100.00
55032;BME280;40928;51.076;7.950;2023-04-08T04:54:48;97552.31;;;4.40;100.00
55032;BME280;40928;51.076;7.950;2023-04-08T04:57:13;97561.25;;;4.39;100.00
55032;BME280;40928;51.076;7.950;2023-04-08T04:59:39;97555.97;;;4.39;100.00
55032;BME280;40928;51.076;7.950;2023-04-08T05:02:04;97554.97;;;4.40;100.00
55032;BME280;40928;51.076;7.950;2023-04-08T05:04:30;97555.97;;;4.39;100.00
55032;BME280;40928;51.076;7.950;2023-04-08T05:06:58;97556.97;;;4.38;100.00
55032;BME280;40928;51.076;7.950;2023-04-08T05:09:23;97562.25;;;4.38;100.00
55032;BME280;40928;51.076;7.950;2023-04-08T05:11:49;97562.09;;;4.40;100.00
55032;BME280;40928;51.076;7.950;2023-04-08T05:14:15;97565.38;;;4.42;100.00
55032;BME280;40928;51.076;7.950;2023-04-08T05:16:40;97558.25;;;4.42;100.00
55032;BME280;40928;51.076;7.950;2023-04-08T05:19:06;97554.81;;;4.42;100.00
55032;BME280;40928;51.076;7.950;2023-04-08T05:21:31;97559.25;;;4.41;100.00
55032;BME280;40928;51.076;7.950;2023-04-08T05:23:57;97561.72;;;4.43;100.00
55032;BME280;40928;51.076;7.950;2023-04-08T05:26:22;97560.16;;;4.49;100.00
55032;BME280;40928;51.076;7.950;2023-04-08T05:28:49;97552.22;;;4.49;100.00
55032;BME280;40928;51.076;7.950;2023-04-08T05:31:16;97568.09;;;4.49;100.00
55032;BME280;40928;51.076;7.950;2023-04-08T05:33:41;97573.38;;;4.49;100.00
55032;BME280;40928;51.076;7.950;2023-04-08T05:36:07;97576.03;;;4.49;100.00
55032;BME280;40928;51.076;7.950;2023-04-08T05:38:33;97580.13;;;4.51;100.00
55032;BME280;40928;51.076;7.950;2023-04-08T05:40:58;97573.00;;;4.52;100.00
55032;BME280;40928;51.076;7.950;2023-04-08T05:43:24;97575.47;;;4.53;100.00
55032;BME280;40928;51.076;7.950;2023-04-08T05:45:49;97582.75;;;4.51;100.00
55032;BME280;40928;51.076;7.950;2023-04-08T05:48:15;97586.03;;;4.53;100.00
55032;BME280;40928;51.076;7.950;2023-04-08T05:50:41;97580.75;;;4.53;100.00
55032;BME280;40928;51.076;7.950;2023-04-08T05:53:08;97588.69;;;4.53;100.00
55032;BME280;40928;51.076;7.950;2023-04-08T05:55:33;97580.91;;;4.52;100.00
55032;BME280;40928;51.076;7.950;2023-04-08T05:57:59;97585.41;;;4.51;100.00
55032;BME280;40928;51.076;7.950;2023-04-08T06:00:24;97592.34;;;4.52;100.00
55032;BME280;40928;51.076;7.950;2023-04-08T06:02:50;97593.16;;;4.53;100.00
55032;BME280;40928;51.076;7.950;2023-04-08T06:05:15;97600.72;;;4.56;100.00
55032;BME280;40928;51.076;7.950;2023-04-08T06:07:41;97586.50;;;4.57;100.00
55032;BME280;40928;51.076;7.950;2023-04-08T06:10:07;97592.59;;;4.57;100.00
55032;BME280;40928;51.076;7.950;2023-04-08T06:12:36;97589.97;;;4.57;100.00
55032;BME280;40928;51.076;7.950;2023-04-08T06:15:05;97595.25;;;4.57;100.00
55032;BME280;40928;51.076;7.950;2023-04-08T06:17:31;97595.69;;;4.61;100.00
55032;BME280;40928;51.076;7.950;2023-04-08T06:19:56;97596.34;;;4.63;100.00
55032;BME280;40928;51.076;7.950;2023-04-08T06:22:22;97591.22;;;4.62;100.00
55032;BME280;40928;51.076;7.950;2023-04-08T06:24:47;97602.44;;;4.64;100.00
55032;BME280;40928;51.076;7.950;2023-04-08T06:27:13;97607.72;;;4.64;100.00
55032;BME280;40928;51.076;7.950;2023-04-08T06:29:39;97615.50;;;4.65;100.00
55032;BME280;40928;51.076;7.950;2023-04-08T06:32:05;97613.84;;;4.64;100.00
55032;BME280;40928;51.076;7.950;2023-04-08T06:34:31;97617.50;;;4.63;100.00
55032;BME280;40928;51.076;7.950;2023-04-08T06:36:57;97610.38;;;4.64;100.00
55032;BME280;40928;51.076;7.950;2023-04-08T06:39:22;97612.19;;;4.63;100.00
55032;BME280;40928;51.076;7.950;2023-04-08T06:41:48;97620.78;;;4.65;100.00
55032;BME280;40928;51.076;7.950;2023-04-08T06:44:30;97622.59;;;4.65;100.00
55032;BME280;40928;51.076;7.950;2023-04-08T06:46:56;97618.13;;;4.65;100.00
55032;BME280;40928;51.076;7.950;2023-04-08T06:49:21;97617.75;;;4.68;100.00
55032;BME280;40928;51.076;7.950;2023-04-08T06:51:47;97622.66;;;4.71;100.00
55032;BME280;40928;51.076;7.950;2023-04-08T06:54:13;97618.28;;;4.79;100.00
55032;BME280;40928;51.076;7.950;2023-04-08T06:56:38;97622.00;;;4.84;100.00
55032;BME280;40928;51.076;7.950;2023-04-08T06:59:03;97618.78;;;4.89;100.00
55032;BME280;40928;51.076;7.950;2023-04-08T07:01:29;97620.44;;;4.90;100.00
55032;BME280;40928;51.076;7.950;2023-04-08T07:03:56;97630.66;;;4.93;100.00
55032;BME280;40928;51.076;7.950;2023-04-08T07:06:21;97629.63;;;4.94;100.00
55032;BME280;40928;51.076;7.950;2023-04-08T07:08:47;97631.28;;;4.95;100.00
55032;BME280;40928;51.076;7.950;2023-04-08T07:11:12;97645.38;;;5.02;100.00
55032;BME280;40928;51.076;7.950;2023-04-08T07:13:38;97636.72;;;5.09;100.00
55032;BME280;40928;51.076;7.950;2023-04-08T07:16:04;97641.88;;;5.17;100.00
55032;BME280;40928;51.076;7.950;2023-04-08T07:18:30;97641.88;;;5.17;100.00
55032;BME280;40928;51.076;7.950;2023-04-08T07:20:56;97647.16;;;5.17;100.00
55032;BME280;40928;51.076;7.950;2023-04-08T07:23:22;97650.28;;;5.21;100.00
55032;BME280;40928;51.076;7.950;2023-04-08T07:25:47;97653.94;;;5.20;100.00
55032;BME280;40928;51.076;7.950;2023-04-08T07:28:13;97650.06;;;5.22;100.00
55032;BME280;40928;51.076;7.950;2023-04-08T07:30:38;97645.03;;;5.27;100.00
55032;BME280;40928;51.076;7.950;2023-04-08T07:33:04;97644.03;;;5.28;100.00
55032;BME280;40928;51.076;7.950;2023-04-08T07:35:30;97649.56;;;5.33;100.00
55032;BME280;40928;51.076;7.950;2023-04-08T07:37:56;97660.22;;;5.40;100.00
55032;BME280;40928;51.076;7.950;2023-04-08T07:40:22;97665.41;;;5.48;100.00
55032;BME280;40928;51.076;7.950;2023-04-08T07:42:48;97673.84;;;5.59;100.00
55032;BME280;40928;51.076;7.950;2023-04-08T07:45:14;97663.50;;;5.64;100.00
55032;BME280;40928;51.076;7.950;2023-04-08T07:47:39;97669.00;;;5.69;100.00
55032;BME280;40928;51.076;7.950;2023-04-08T07:50:06;97668.91;;;5.77;100.00
55032;BME280;40928;51.076;7.950;2023-04-08T07:52:32;97678.09;;;5.82;100.00
55032;BME280;40928;51.076;7.950;2023-04-08T07:54:58;97677.91;;;5.83;100.00
55032;BME280;40928;51.076;7.950;2023-04-08T07:57:24;97676.69;;;5.86;100.00
55032;BME280;40928;51.076;7.950;2023-04-08T07:59:51;97680.81;;;5.88;100.00
55032;BME280;40928;51.076;7.950;2023-04-08T08:02:16;97675.13;;;5.91;100.00
55032;BME280;40928;51.076;7.950;2023-04-08T08:04:48;97677.78;;;5.91;100.00
55032;BME280;40928;51.076;7.950;2023-04-08T08:07:15;97684.31;;;5.95;100.00
55032;BME280;40928;51.076;7.950;2023-04-08T08:09:40;97686.59;;;5.99;100.00
55032;BME280;40928;51.076;7.950;2023-04-08T08:12:06;97688.06;;;6.01;100.00
55032;BME280;40928;51.076;7.950;2023-04-08T08:14:31;97686.59;;;5.99;100.00
55032;BME280;40928;51.076;7.950;2023-04-08T08:16:57;97683.94;;;5.99;100.00
55032;BME280;40928;51.076;7.950;2023-04-08T08:19:22;97695.63;;;6.04;100.00
55032;BME280;40928;51.076;7.950;2023-04-08T08:21:48;97699.34;;;6.10;100.00
55032;BME280;40928;51.076;7.950;2023-04-08T08:24:14;97698.78;;;6.15;100.00
55032;BME280;40928;51.076;7.950;2023-04-08T08:26:41;97699.84;;;6.20;100.00
55032;BME280;40928;51.076;7.950;2023-04-08T08:29:06;97689.44;;;6.25;100.00
55032;BME280;40928;51.076;7.950;2023-04-08T08:31:33;97694.38;;;6.29;100.00
55032;BME280;40928;51.076;7.950;2023-04-08T08:33:59;97694.38;;;6.29;100.00
55032;BME280;40928;51.076;7.950;2023-04-08T08:36:25;97694.56;;;6.27;100.00
55032;BME280;40928;51.076;7.950;2023-04-08T08:38:51;97704.63;;;6.38;100.00
55032;BME280;40928;51.076;7.950;2023-04-08T08:41:21;97702.41;;;6.42;100.00
55032;BME280;40928;51.076;7.950;2023-04-08T08:43:47;97706.94;;;6.48;100.00
55032;BME280;40928;51.076;7.950;2023-04-08T08:46:15;97714.25;;;6.46;100.00
55032;BME280;40928;51.076;7.950;2023-04-08T08:48:42;97704.28;;;6.48;100.00
55032;BME280;40928;51.076;7.950;2023-04-08T08:51:11;97710.19;;;6.44;100.00
55032;BME280;40928;51.076;7.950;2023-04-08T08:53:37;97718.75;;;6.46;100.00
55032;BME280;40928;51.076;7.950;2023-04-08T08:56:03;97712.25;;;6.48;100.00
55032;BME280;40928;51.076;7.950;2023-04-08T08:58:29;97709.59;;;6.48;100.00
55032;BME280;40928;51.076;7.950;2023-04-08T09:00:54;97716.31;;;6.51;100.00
55032;BME280;40928;51.076;7.950;2023-04-08T09:03:25;97711.84;;;6.51;100.00
55032;BME280;40928;51.076;7.950;2023-04-08T09:05:55;97716.56;;;6.56;100.00
55032;BME280;40928;51.076;7.950;2023-04-08T09:08:29;97724.53;;;6.56;100.00
55032;BME280;40928;51.076;7.950;2023-04-08T09:11:09;97722.94;;;6.62;100.00
55032;BME280;40928;51.076;7.950;2023-04-08T09:13:35;97724.59;;;6.69;100.00
55032;BME280;40928;51.076;7.950;2023-04-08T09:16:09;97725.66;;;6.82;100.00
55032;BME280;40928;51.076;7.950;2023-04-08T09:18:36;97735.09;;;6.84;100.00
55032;BME280;40928;51.076;7.950;2023-04-08T09:21:06;97742.06;;;6.92;100.00
55032;BME280;40928;51.076;7.950;2023-04-08T09:26:13;97739.91;;;7.16;100.00
55032;BME280;40928;51.076;7.950;2023-04-08T09:28:41;97734.63;;;7.29;100.00
55032;BME280;40928;51.076;7.950;2023-04-08T09:31:20;97732.97;;;7.22;100.00
55032;BME280;40928;51.076;7.950;2023-04-08T09:33:48;97741.94;;;7.14;100.00
55032;BME280;40928;51.076;7.950;2023-04-08T09:36:14;97735.19;;;7.11;100.00
55032;BME280;40928;51.076;7.950;2023-04-08T09:38:41;97742.09;;;6.99;100.00
55032;BME280;40928;51.076;7.950;2023-04-08T09:41:07;97748.75;;;6.81;100.00
55032;BME280;40928;51.076;7.950;2023-04-08T09:43:46;97746.31;;;6.86;100.00
55032;BME280;40928;51.076;7.950;2023-04-08T09:46:14;97740.19;;;6.86;100.00
55032;BME280;40928;51.076;7.950;2023-04-08T09:48:48;97741.00;;;6.86;100.00
55032;BME280;40928;51.076;7.950;2023-04-08T09:51:16;97744.66;;;6.85;100.00
55032;BME280;40928;51.076;7.950;2023-04-08T09:53:54;97753.69;;;6.84;100.00
55032;BME280;40928;51.076;7.950;2023-04-08T09:56:21;97748.53;;;6.76;100.00
55032;BME280;40928;51.076;7.950;2023-04-08T09:59:02;97757.31;;;6.77;100.00
55032;BME280;40928;51.076;7.950;2023-04-08T10:01:38;97745.78;;;6.63;100.00
55032;BME280;40928;51.076;7.950;2023-04-08T10:04:14;97744.53;;;6.59;100.00
55032;BME280;40928;51.076;7.950;2023-04-08T10:06:40;97746.19;;;6.60;100.00
55032;BME280;40928;51.076;7.950;2023-04-08T10:09:06;97742.69;;;6.52;100.00
55032;BME280;40928;51.076;7.950;2023-04-08T10:11:32;97742.44;;;6.47;100.00
55032;BME280;40928;51.076;7.950;2023-04-08T10:13:59;97745.72;;;6.49;100.00
55032;BME280;40928;51.076;7.950;2023-04-08T10:16:25;97738.72;;;6.42;100.00
55032;BME280;40928;51.076;7.950;2023-04-08T10:18:55;97744.03;;;6.42;100.00
55032;BME280;40928;51.076;7.950;2023-04-08T10:21:37;97746.88;;;6.40;100.00
55032;BME280;40928;51.076;7.950;2023-04-08T10:24:10;97748.91;;;6.38;100.00
55032;BME280;40928;51.076;7.950;2023-04-08T10:26:38;97749.97;;;6.44;100.00
55032;BME280;40928;51.076;7.950;2023-04-08T10:31:41;97758.06;;;6.64;100.00
55032;BME280;40928;51.076;7.950;2023-04-08T10:34:20;97763.81;;;6.74;100.00
55032;BME280;40928;51.076;7.950;2023-04-08T10:36:47;97763.81;;;6.74;100.00
55032;BME280;40928;51.076;7.950;2023-04-08T10:39:13;97758.53;;;6.81;100.00
55032;BME280;40928;51.076;7.950;2023-04-08T10:41:46;97754.50;;;6.85;100.00
55032;BME280;40928;51.076;7.950;2023-04-08T10:44:23;97757.81;;;6.94;100.00
55032;BME280;40928;51.076;7.950;2023-04-08T10:46:50;97755.81;;;7.03;100.00
55032;BME280;40928;51.076;7.950;2023-04-08T10:49:16;97757.63;;;7.02;100.00
55032;BME280;40928;51.076;7.950;2023-04-08T10:51:43;97765.03;;;7.13;100.00
55032;BME280;40928;51.076;7.950;2023-04-08T10:54:13;97751.97;;;7.25;100.00
55032;BME280;40928;51.076;7.950;2023-04-08T10:56:51;97755.13;;;7.42;100.00
55032;BME280;40928;51.076;7.950;2023-04-08T10:59:30;97752.72;;;7.61;100.00
55032;BME280;40928;51.076;7.950;2023-04-08T11:01:57;97759.72;;;7.96;100.00
55032;BME280;40928;51.076;7.950;2023-04-08T11:04:24;97761.94;;;8.39;100.00
55032;BME280;40928;51.076;7.950;2023-04-08T11:06:50;97747.22;;;8.30;100.00
55032;BME280;40928;51.076;7.950;2023-04-08T11:09:16;97762.16;;;8.37;100.00
55032;BME280;40928;51.076;7.950;2023-04-08T11:11:43;97756.84;;;8.31;100.00
55032;BME280;40928;51.076;7.950;2023-04-08T11:14:09;97766.66;;;8.17;100.00
55032;BME280;40928;51.076;7.950;2023-04-08T11:16:39;97766.44;;;8.12;100.00
55032;BME280;40928;51.076;7.950;2023-04-08T11:19:06;97763.38;;;8.01;100.00
55032;BME280;40928;51.076;7.950;2023-04-08T11:21:34;97754.59;;;8.01;100.00
55032;BME280;40928;51.076;7.950;2023-04-08T11:24:05;97758.47;;;8.12;100.00
55032;BME280;40928;51.076;7.950;2023-04-08T11:26:31;97755.22;;;8.50;100.00
55032;BME280;40928;51.076;7.950;2023-04-08T11:28:57;97747.78;;;8.79;100.00
55032;BME280;40928;51.076;7.950;2023-04-08T11:31:23;97745.06;;;9.38;100.00
55032;BME280;40928;51.076;7.950;2023-04-08T11:33:52;97749.22;;;9.98;100.00
55032;BME280;40928;51.076;7.950;2023-04-08T11:36:19;97736.97;;;10.85;92.37
55032;BME280;40928;51.076;7.950;2023-04-08T11:38:46;97740.16;;;11.85;89.24
55032;BME280;40928;51.076;7.950;2023-04-08T11:41:12;97743.53;;;12.34;87.54
55032;BME280;40928;51.076;7.950;2023-04-08T11:43:38;97748.59;;;12.00;85.43
55032;BME280;40928;51.076;7.950;2023-04-08T11:46:09;97751.41;;;11.63;88.95
55032;BME280;40928;51.076;7.950;2023-04-08T11:48:35;97744.53;;;11.37;89.09
55032;BME280;40928;51.076;7.950;2023-04-08T11:51:06;97743.16;;;11.34;88.50
55032;BME280;40928;51.076;7.950;2023-04-08T11:53:34;97736.91;;;11.22;89.96
55032;BME280;40928;51.076;7.950;2023-04-08T12:07:33;97736.59;;;10.81;92.88
55032;BME280;40928;51.076;7.950;2023-04-08T12:12:32;97731.84;;;11.63;91.97
55032;BME280;40928;51.076;7.950;2023-04-08T12:14:57;97726.56;;;11.86;90.77
55032;BME280;40928;51.076;7.950;2023-04-08T12:17:23;97721.28;;;12.34;89.51
55032;BME280;40928;51.076;7.950;2023-04-08T12:19:48;97733.41;;;12.48;88.57
55032;BME280;40928;51.076;7.950;2023-04-08T12:22:14;97729.56;;;12.44;87.70
55032;BME280;40928;51.076;7.950;2023-04-08T12:24:40;97732.34;;;12.26;87.29
55032;BME280;40928;51.076;7.950;2023-04-08T12:27:06;97738.06;;;12.29;89.15
55032;BME280;40928;51.076;7.950;2023-04-08T12:29:32;97739.66;;;12.30;89.15
55032;BME280;40928;51.076;7.950;2023-04-08T12:31:58;97735.84;;;12.26;89.27
55032;BME280;40928;51.076;7.950;2023-04-08T12:34:24;97738.75;;;12.13;89.36
55032;BME280;40928;51.076;7.950;2023-04-08T12:36:50;97742.34;;;12.07;89.78
55032;BME280;40928;51.076;7.950;2023-04-08T12:39:22;97746.06;;;12.06;91.27
55032;BME280;40928;51.076;7.950;2023-04-08T12:41:48;97739.16;;;11.98;92.35
55032;BME280;40928;51.076;7.950;2023-04-08T12:44:16;97742.91;;;11.66;92.84
55032;BME280;40928;51.076;7.950;2023-04-08T12:46:42;97738.75;;;11.40;94.74
55032;BME280;40928;51.076;7.950;2023-04-08T12:49:07;97746.00;;;11.21;96.93
55032;BME280;40928;51.076;7.950;2023-04-08T12:51:34;97727.16;;;10.78;99.64
55032;BME280;40928;51.076;7.950;2023-04-08T12:54:00;97743.41;;;10.77;100.00
55032;BME280;40928;51.076;7.950;2023-04-08T12:56:28;97740.19;;;10.49;100.00
55032;BME280;40928;51.076;7.950;2023-04-08T12:58:54;97729.56;;;10.17;100.00
55032;BME280;40928;51.076;7.950;2023-04-08T13:01:21;97738.97;;;10.20;100.00
55032;BME280;40928;51.076;7.950;2023-04-08T13:03:46;97742.84;;;9.99;100.00
55032;BME280;40928;51.076;7.950;2023-04-08T13:06:12;97732.78;;;10.01;100.00
55032;BME280;40928;51.076;7.950;2023-04-08T13:08:38;97743.78;;;9.86;100.00
55032;BME280;40928;51.076;7.950;2023-04-08T13:11:03;97733.53;;;9.83;100.00
55032;BME280;40928;51.076;7.950;2023-04-08T13:13:29;97737.84;;;9.84;100.00
55032;BME280;40928;51.076;7.950;2023-04-08T13:15:54;97743.56;;;9.87;100.00
55032;BME280;40928;51.076;7.950;2023-04-08T13:18:21;97745.41;;;9.87;100.00
55032;BME280;40928;51.076;7.950;2023-04-08T13:20:46;97741.59;;;9.76;100.00
55032;BME280;40928;51.076;7.950;2023-04-08T13:23:12;97735.47;;;9.69;100.00
55032;BME280;40928;51.076;7.950;2023-04-08T13:25:39;97735.00;;;9.79;100.00
55032;BME280;40928;51.076;7.950;2023-04-08T13:28:05;97738.59;;;9.91;100.00
55032;BME280;40928;51.076;7.950;2023-04-08T13:30:31;97724.22;;;9.92;100.00
55032;BME280;40928;51.076;7.950;2023-04-08T13:32:56;97727.00;;;10.04;100.00